This is the latest recevied weather packets stored in our database for station/object SLG. If no packets are shown the sender has not sent any weather packets the latest 10 day(s).
| Time | Temp. | Humidity | Pressure | Rain* | Wind** | Luminosity | Snow |
|---|---|---|---|---|---|---|---|
| 1777519931 | 2.78° C | 61% | 1021.7 hPa | 0 mm | - | - | - |
| 1777518132 | 3.33° C | 60% | 1021.6 hPa | 0 mm | - | - | - |
| 1777514532 | 5° C | 55% | 1021.4 hPa | 0 mm | - | - | - |
| 1777512731 | 5.56° C | 54% | 1021.2 hPa | 0 mm | - | - | - |
| 1777510932 | 6.11° C | 52% | 1021.1 hPa | 0 mm | - | - | - |
| 1777509129 | 6.67° C | 50% | 1020.9 hPa | 0 mm | - | - | - |
| 1777507330 | 6.67° C | 49% | 1020.8 hPa | 0 mm | - | - | - |
| 1777505529 | 7.22° C | 48% | 1020.8 hPa | 0 mm | - | - | - |
| 1777503729 | 8.33° C | 47% | 1020.7 hPa | 0 mm | - | - | - |
| 1777501931 | 8.89° C | 45% | 1020.5 hPa | 0 mm | - | - | - |
| 1777498329 | 10° C | 42% | 1020 hPa | 0 mm | - | - | - |
| 1777496530 | 10° C | 42% | 1019.7 hPa | 0 mm | - | - | - |
| 1777494730 | 10.56° C | 42% | 1019.5 hPa | 0 mm | - | - | - |
| 1777492929 | 11.11° C | 41% | 1019.2 hPa | 0 mm | - | - | - |
| 1777491129 | 12.22° C | 40% | 1018.8 hPa | 0 mm | - | - | - |
| 1777489330 | 12.78° C | 39% | 1018.4 hPa | 0 mm | - | - | - |
| 1777487531 | 13.89° C | 38% | 1018.1 hPa | 0 mm | - | - | - |
| 1777485731 | 15° C | 36% | 1017.7 hPa | 0 mm | - | - | - |
| 1777483931 | 16.11° C | 37% | 1017.3 hPa | 0 mm | - | - | - |
| 1777482131 | 17.22° C | 36% | 1017.2 hPa | 0 mm | - | - | - |
| 1777480336 | 18.33° C | 33% | 1017.1 hPa | 0 mm | - | - | - |
| 1777478529 | 19.44° C | 32% | 1016.8 hPa | 0 mm | - | - | - |
| 1777476730 | 19.44° C | 32% | 1016.8 hPa | 0 mm | - | - | - |
| 1777474931 | 19.44° C | 31% | 1016.7 hPa | 0 mm | - | - | - |
| 1777473135 | 20° C | 31% | 1016.7 hPa | 0 mm | - | - | - |
* Rain since midnight (hover to see other rain measurements)
** Current wind speed in m/s (hover to see current wind gust speed)